METAR Data
IDs: Format: Raw Decoded Include TAF

Data at: 0533 UTC 03 Jul 2022

KCEC 030456Z AUTO 00000KT 6SM BR OVC006 12/11 A3002 RMK AO2 SLP167 T01220111

KCEC 030522Z 0306/0406 VRB03KT 6SM BR OVC006
  FM030800 VRB03KT 3SM -DZ BR OVC006
  FM031700 27005KT 6SM BR SCT008 BKN025 BKN150
  FM040300 36004KT P6SM SCT015 BKN060 OVC120